createdAt,value
2017-07-23T00:01:11.736Z,20.42
2017-07-23T00:03:39.467Z,20.46
2017-07-23T00:06:07.232Z,20.41
2017-07-23T00:08:34.900Z,20.43
2017-07-23T00:11:02.660Z,20.32
2017-07-23T00:13:30.376Z,20.33
2017-07-23T00:15:58.074Z,20.31
2017-07-23T00:18:25.855Z,20.39
2017-07-23T00:20:53.554Z,20.40
2017-07-23T00:23:21.330Z,20.43
2017-07-23T00:25:49.070Z,20.38
2017-07-23T00:28:16.781Z,20.39
2017-07-23T00:30:44.537Z,20.44
2017-07-23T00:33:12.278Z,20.35
2017-07-23T00:35:39.982Z,20.31
2017-07-23T00:38:07.751Z,20.29
2017-07-23T00:40:35.465Z,20.31
2017-07-23T00:43:03.266Z,20.26
2017-07-23T00:45:30.967Z,20.29
2017-07-23T00:47:58.715Z,20.31
2017-07-23T00:50:26.434Z,20.28
2017-07-23T00:52:54.151Z,20.26
2017-07-23T00:55:21.905Z,20.33
2017-07-23T00:57:49.595Z,20.21
2017-07-23T01:00:17.347Z,20.15
2017-07-23T01:02:45.065Z,20.14
2017-07-23T01:05:12.811Z,20.13
2017-07-23T01:07:40.624Z,20.19
2017-07-23T01:10:08.383Z,20.16
2017-07-23T01:12:36.153Z,20.08
2017-07-23T01:15:04.004Z,20.05
2017-07-23T01:17:31.716Z,19.96
2017-07-23T01:19:59.466Z,20.03
2017-07-23T01:22:27.188Z,20.00
2017-07-23T01:24:54.909Z,19.90
2017-07-23T01:27:22.690Z,19.77
2017-07-23T01:29:50.406Z,19.71
2017-07-23T01:32:18.166Z,19.70
2017-07-23T01:34:45.887Z,19.59
2017-07-23T01:37:13.576Z,19.68
2017-07-23T01:39:41.347Z,19.74
2017-07-23T01:42:09.095Z,19.77
2017-07-23T01:44:36.922Z,19.70
2017-07-23T01:47:04.638Z,19.74
2017-07-23T01:49:32.408Z,19.70
2017-07-23T01:52:00.193Z,19.63
2017-07-23T01:54:27.899Z,19.43
2017-07-23T01:56:55.689Z,19.41
2017-07-23T01:59:23.466Z,19.39
2017-07-23T02:01:51.257Z,19.47
2017-07-23T02:04:19.003Z,19.43
2017-07-23T02:06:46.736Z,19.32
2017-07-23T02:09:14.507Z,19.32
2017-07-23T02:11:42.277Z,19.37
2017-07-23T02:14:10.113Z,19.33
2017-07-23T02:16:37.874Z,19.37
2017-07-23T02:19:05.590Z,19.45
2017-07-23T02:21:33.279Z,19.43
2017-07-23T02:24:01.010Z,19.45
2017-07-23T02:26:28.776Z,19.50
2017-07-23T02:28:56.489Z,19.38
2017-07-23T02:31:24.226Z,19.38
2017-07-23T02:33:51.937Z,19.34
2017-07-23T02:36:19.693Z,19.21
2017-07-23T02:38:47.398Z,19.19
2017-07-23T02:41:15.133Z,19.19
2017-07-23T02:43:42.904Z,19.19
2017-07-23T02:46:10.634Z,19.19
2017-07-23T02:48:38.462Z,19.18
2017-07-23T02:51:06.188Z,19.17
2017-07-23T02:53:33.909Z,19.16
2017-07-23T02:56:01.685Z,19.18
2017-07-23T02:58:29.445Z,19.28
2017-07-23T03:00:57.967Z,19.15
2017-07-23T03:03:25.701Z,19.11
2017-07-23T03:05:53.486Z,19.27
2017-07-23T03:08:21.194Z,19.17
2017-07-23T03:10:48.935Z,19.17
2017-07-23T03:13:16.640Z,19.14
2017-07-23T03:15:44.321Z,19.02
2017-07-23T03:18:12.111Z,19.02
2017-07-23T03:20:39.788Z,18.94
2017-07-23T03:23:07.489Z,18.89
2017-07-23T03:25:35.236Z,18.81
2017-07-23T03:28:03.022Z,18.76
2017-07-23T03:30:30.843Z,18.90
2017-07-23T03:32:58.535Z,19.04
2017-07-23T03:35:26.298Z,18.98
2017-07-23T03:37:54.018Z,18.92
2017-07-23T03:40:21.784Z,18.95
2017-07-23T03:42:49.794Z,18.97
2017-07-23T03:45:17.528Z,18.88
2017-07-23T03:47:45.297Z,18.81
2017-07-23T03:50:13.006Z,18.83
2017-07-23T03:52:40.751Z,18.84
2017-07-23T03:55:08.543Z,18.94
2017-07-23T03:57:36.253Z,18.92
2017-07-23T04:00:04.072Z,18.99
2017-07-23T04:02:31.773Z,19.09
2017-07-23T04:04:59.532Z,19.05
2017-07-23T04:07:27.345Z,19.11
2017-07-23T04:09:55.065Z,19.05
2017-07-23T04:12:22.765Z,19.07
2017-07-23T04:14:50.551Z,19.08
2017-07-23T04:17:18.310Z,19.21
2017-07-23T04:19:46.027Z,19.25
2017-07-23T04:22:13.806Z,19.22
2017-07-23T04:24:41.509Z,19.13
2017-07-23T04:27:09.260Z,19.14
2017-07-23T04:29:36.949Z,19.12
2017-07-23T04:32:04.729Z,19.10
2017-07-23T04:34:32.470Z,19.13
2017-07-23T04:37:00.249Z,19.20
2017-07-23T04:39:28.019Z,19.24
2017-07-23T04:41:55.784Z,19.24
2017-07-23T04:44:23.559Z,19.21
2017-07-23T04:46:51.305Z,19.25
2017-07-23T04:49:19.058Z,19.30
2017-07-23T04:51:46.822Z,19.27
2017-07-23T04:54:14.555Z,19.32
2017-07-23T04:56:42.334Z,19.38
2017-07-23T04:59:10.032Z,19.31
2017-07-23T05:01:37.756Z,19.36
2017-07-23T05:04:05.533Z,19.40
2017-07-23T05:06:33.320Z,19.36
2017-07-23T05:09:01.065Z,19.36
2017-07-23T05:11:28.815Z,19.31
2017-07-23T05:13:56.652Z,19.28
2017-07-23T05:16:24.381Z,19.34
2017-07-23T05:18:52.150Z,19.41
2017-07-23T05:21:19.880Z,19.26
2017-07-23T05:23:47.834Z,19.00
2017-07-23T05:26:16.375Z,18.95
2017-07-23T05:28:44.114Z,19.07
2017-07-23T05:31:11.924Z,18.87
2017-07-23T05:33:39.637Z,18.76
2017-07-23T05:36:07.392Z,18.77
2017-07-23T05:38:35.110Z,18.68
2017-07-23T05:41:02.869Z,18.54
2017-07-23T05:43:30.588Z,18.63
2017-07-23T05:45:58.363Z,18.54
2017-07-23T05:48:26.080Z,18.67
2017-07-23T05:50:53.793Z,18.84
2017-07-23T05:53:21.671Z,18.88
2017-07-23T05:55:49.396Z,19.01
2017-07-23T05:58:17.154Z,18.86
2017-07-23T06:00:44.898Z,18.98
2017-07-23T06:03:12.632Z,19.19
2017-07-23T06:05:40.396Z,19.04
2017-07-23T06:08:08.100Z,19.25
2017-07-23T06:10:35.791Z,19.37
2017-07-23T06:13:03.572Z,19.37
2017-07-23T06:15:31.262Z,19.20
2017-07-23T06:17:59.048Z,19.39
2017-07-23T06:20:27.586Z,19.60
2017-07-23T06:22:55.361Z,19.68
2017-07-23T06:25:23.152Z,19.75
2017-07-23T06:27:50.858Z,19.66
2017-07-23T06:30:18.597Z,19.77
2017-07-23T06:32:46.348Z,20.33
2017-07-23T06:35:14.134Z,20.91
2017-07-23T06:37:42.014Z,21.28
2017-07-23T06:40:10.882Z,21.23
2017-07-23T06:42:39.108Z,21.10
2017-07-23T06:45:07.052Z,21.02
2017-07-23T06:47:34.824Z,21.42
2017-07-23T06:50:02.605Z,21.49
2017-07-23T06:52:30.432Z,21.36
2017-07-23T06:54:58.152Z,21.06
2017-07-23T06:57:25.872Z,20.84
2017-07-23T06:59:53.639Z,21.04
2017-07-23T07:02:21.396Z,21.23
2017-07-23T07:04:49.894Z,21.24
2017-07-23T07:07:17.595Z,21.27
2017-07-23T07:09:45.414Z,21.20
2017-07-23T07:12:13.162Z,20.96
2017-07-23T07:14:40.943Z,21.12
2017-07-23T07:17:08.707Z,20.97
2017-07-23T07:19:36.445Z,20.88
2017-07-23T07:22:04.221Z,21.19
2017-07-23T07:24:32.053Z,21.83
2017-07-23T07:29:26.867Z,22.85
2017-07-23T07:31:54.570Z,22.90
2017-07-23T07:34:22.397Z,23.06
2017-07-23T07:36:50.236Z,23.05
2017-07-23T07:39:18.068Z,22.92
2017-07-23T07:41:45.816Z,22.29
2017-07-23T07:44:13.568Z,22.88
2017-07-23T07:46:41.392Z,22.68
2017-07-23T07:49:11.420Z,22.43
2017-07-23T07:51:39.991Z,22.67
2017-07-23T07:54:07.808Z,23.12
2017-07-23T07:56:35.620Z,23.27
2017-07-23T07:59:03.409Z,23.38
2017-07-23T08:01:31.165Z,23.55
2017-07-23T08:03:58.974Z,23.04
2017-07-23T08:06:26.694Z,22.94
2017-07-23T08:08:54.482Z,22.83
2017-07-23T08:11:22.336Z,23.61
2017-07-23T08:13:50.334Z,23.73
2017-07-23T08:16:18.093Z,23.92
2017-07-23T08:18:45.859Z,23.73
2017-07-23T08:21:13.732Z,23.16
2017-07-23T08:23:41.568Z,23.38
2017-07-23T08:26:09.336Z,23.74
2017-07-23T08:28:37.049Z,23.79
2017-07-23T08:31:04.738Z,24.02
2017-07-23T08:33:32.562Z,24.56
2017-07-23T08:36:00.347Z,24.92
2017-07-23T08:38:28.096Z,24.76
2017-07-23T08:40:55.934Z,25.25
2017-07-23T08:43:23.745Z,24.81
2017-07-23T08:45:51.649Z,25.37
2017-07-23T08:48:19.381Z,24.73
2017-07-23T08:50:47.177Z,24.98
2017-07-23T08:53:15.692Z,24.69
2017-07-23T08:55:43.481Z,24.51
2017-07-23T08:58:11.195Z,25.05
2017-07-23T09:00:38.983Z,24.98
2017-07-23T09:03:06.737Z,24.73
2017-07-23T09:05:34.486Z,25.08
2017-07-23T09:08:02.388Z,25.39
2017-07-23T09:10:30.164Z,25.92
2017-07-23T09:12:58.087Z,26.25
2017-07-23T09:15:25.941Z,26.15
2017-07-23T09:17:54.034Z,26.38
2017-07-23T09:20:22.081Z,26.63
2017-07-23T09:22:49.969Z,26.38
2017-07-23T09:25:17.790Z,26.66
2017-07-23T09:27:45.582Z,26.22
2017-07-23T09:30:13.333Z,26.25
2017-07-23T09:32:41.162Z,25.68
2017-07-23T09:35:09.007Z,25.92
2017-07-23T09:37:36.900Z,25.67
2017-07-23T09:40:04.695Z,25.72
2017-07-23T09:42:32.512Z,25.80
2017-07-23T09:45:00.396Z,25.75
2017-07-23T09:47:28.311Z,25.83
2017-07-23T09:49:56.091Z,25.82
2017-07-23T09:52:23.896Z,26.18
2017-07-23T09:54:51.740Z,26.60
2017-07-23T09:57:20.659Z,26.91
2017-07-23T09:59:48.507Z,26.55
2017-07-23T10:02:16.391Z,26.52
2017-07-23T10:04:44.239Z,26.24
2017-07-23T10:07:12.043Z,26.42
2017-07-23T10:09:39.872Z,26.41
2017-07-23T10:12:07.803Z,26.03
2017-07-23T10:14:35.581Z,26.36
2017-07-23T10:17:03.443Z,26.24
2017-07-23T10:19:31.186Z,26.54
2017-07-23T10:21:58.911Z,26.84
2017-07-23T10:24:26.752Z,26.67
2017-07-23T10:26:54.577Z,26.68
2017-07-23T10:29:22.349Z,26.72
2017-07-23T10:31:50.153Z,26.84
2017-07-23T10:34:17.915Z,26.95
2017-07-23T10:36:45.772Z,27.11
2017-07-23T10:39:13.504Z,27.31
2017-07-23T10:41:41.276Z,27.80
2017-07-23T10:44:09.096Z,28.23
2017-07-23T10:46:36.829Z,28.18
2017-07-23T10:49:04.637Z,28.31
2017-07-23T10:51:32.476Z,28.37
2017-07-23T10:54:00.276Z,28.30
2017-07-23T10:56:28.148Z,27.99
2017-07-23T10:58:55.925Z,27.94
2017-07-23T11:01:23.694Z,27.82
2017-07-23T11:03:51.593Z,28.07
2017-07-23T11:06:19.384Z,28.15
2017-07-23T11:08:47.341Z,28.66
2017-07-23T11:11:15.198Z,28.51
2017-07-23T11:13:43.628Z,28.24
2017-07-23T11:16:11.419Z,27.86
2017-07-23T11:18:39.200Z,27.52
2017-07-23T11:21:06.975Z,28.13
2017-07-23T11:23:34.745Z,28.71
2017-07-23T11:26:02.572Z,29.04
2017-07-23T11:28:30.496Z,28.52
2017-07-23T11:30:58.670Z,28.05
2017-07-23T11:33:26.957Z,28.24
2017-07-23T11:35:54.803Z,28.30
2017-07-23T11:38:22.508Z,28.08
2017-07-23T11:40:50.371Z,27.72
2017-07-23T11:43:19.109Z,27.88
2017-07-23T11:45:47.033Z,28.02
2017-07-23T11:48:15.158Z,27.97
2017-07-23T11:50:42.925Z,27.24
2017-07-23T11:53:10.680Z,27.58
2017-07-23T11:55:38.454Z,27.60
2017-07-23T11:58:06.266Z,27.17
2017-07-23T12:00:34.094Z,27.30
2017-07-23T12:03:01.928Z,27.54
2017-07-23T12:05:32.826Z,27.74
2017-07-23T12:08:00.572Z,27.96
2017-07-23T12:10:29.729Z,28.11
2017-07-23T12:12:58.393Z,27.92
2017-07-23T12:15:26.202Z,28.14
2017-07-23T12:17:53.974Z,27.81
2017-07-23T12:20:21.692Z,27.72
2017-07-23T12:22:49.436Z,27.59
2017-07-23T12:25:17.213Z,27.25
2017-07-23T12:27:45.052Z,27.34
2017-07-23T12:30:12.806Z,27.39
2017-07-23T12:32:40.580Z,27.00
2017-07-23T12:35:08.461Z,27.28
2017-07-23T12:37:36.252Z,27.52
2017-07-23T12:40:04.065Z,27.51
2017-07-23T12:42:31.864Z,27.65
2017-07-23T12:44:59.687Z,28.09
2017-07-23T12:47:27.428Z,28.27
2017-07-23T12:49:55.225Z,28.25
2017-07-23T12:52:22.971Z,28.02
2017-07-23T12:54:50.754Z,27.75
2017-07-23T12:57:19.202Z,28.02
2017-07-23T12:59:47.127Z,27.84
2017-07-23T13:02:16.033Z,27.48
2017-07-23T13:04:43.802Z,27.47
2017-07-23T13:07:11.579Z,27.55
2017-07-23T13:09:39.386Z,27.59
2017-07-23T13:12:07.265Z,27.74
2017-07-23T13:14:35.911Z,27.91
2017-07-23T13:17:04.752Z,28.19
2017-07-23T13:19:32.613Z,27.89
2017-07-23T13:22:00.465Z,27.04
2017-07-23T13:24:28.257Z,26.87
2017-07-23T13:26:56.027Z,27.14
2017-07-23T13:29:23.882Z,27.37
2017-07-23T13:31:51.774Z,27.24
2017-07-23T13:34:19.557Z,27.23
2017-07-23T13:36:47.362Z,27.39
2017-07-23T13:39:15.152Z,27.38
2017-07-23T13:41:42.924Z,27.66
2017-07-23T13:44:10.674Z,27.43
2017-07-23T13:46:38.458Z,27.30
2017-07-23T13:49:07.144Z,27.40
2017-07-23T13:51:34.928Z,27.49
2017-07-23T13:54:02.708Z,27.99
2017-07-23T13:56:30.420Z,27.41
2017-07-23T13:58:58.233Z,27.70
2017-07-23T14:01:25.997Z,27.67
2017-07-23T14:03:53.780Z,27.65
2017-07-23T14:06:21.500Z,27.48
2017-07-23T14:08:49.500Z,27.27
2017-07-23T14:11:18.370Z,27.34
2017-07-23T14:13:46.301Z,27.58
2017-07-23T14:16:14.095Z,27.55
2017-07-23T14:18:42.738Z,27.69
2017-07-23T14:21:10.527Z,27.39
2017-07-23T14:23:38.305Z,27.69
2017-07-23T14:26:06.108Z,27.75
2017-07-23T14:28:33.933Z,27.57
2017-07-23T14:31:02.081Z,27.36
2017-07-23T14:33:30.039Z,27.93
2017-07-23T14:35:57.881Z,27.87
2017-07-23T14:38:25.586Z,27.51
2017-07-23T14:40:53.345Z,27.73
2017-07-23T14:43:21.057Z,27.54
2017-07-23T14:45:48.847Z,27.54
2017-07-23T14:48:17.004Z,27.73
2017-07-23T14:50:45.508Z,27.95
2017-07-23T14:53:13.532Z,27.17
2017-07-23T14:55:41.268Z,27.15
2017-07-23T14:58:09.093Z,27.42
2017-07-23T15:00:36.811Z,27.49
2017-07-23T15:03:04.545Z,27.63
2017-07-23T15:05:32.304Z,27.74
2017-07-23T15:08:00.067Z,27.89
2017-07-23T15:10:27.840Z,28.00
2017-07-23T15:12:55.637Z,27.84
2017-07-23T15:15:23.339Z,28.22
2017-07-23T15:17:51.053Z,27.97
2017-07-23T15:20:18.806Z,28.03
2017-07-23T15:22:46.562Z,28.01
2017-07-23T15:25:14.333Z,27.91
2017-07-23T15:27:42.085Z,27.79
2017-07-23T15:30:09.968Z,27.89
2017-07-23T15:32:37.801Z,28.01
2017-07-23T15:35:05.662Z,28.19
2017-07-23T15:37:33.535Z,27.82
2017-07-23T15:40:01.271Z,27.63
2017-07-23T15:42:29.046Z,27.23
2017-07-23T15:44:56.856Z,27.09
2017-07-23T15:47:24.616Z,27.09
2017-07-23T15:49:52.447Z,26.74
2017-07-23T15:52:20.214Z,26.80
2017-07-23T15:54:48.069Z,26.79
2017-07-23T15:57:15.821Z,26.75
2017-07-23T15:59:43.713Z,26.49
2017-07-23T16:02:11.490Z,26.40
2017-07-23T16:04:39.220Z,26.37
2017-07-23T16:07:07.107Z,26.28
2017-07-23T16:09:34.842Z,26.30
2017-07-23T16:12:02.621Z,26.17
2017-07-23T16:14:30.426Z,26.21
2017-07-23T16:16:58.215Z,26.11
2017-07-23T16:19:26.040Z,25.96
2017-07-23T16:21:53.847Z,26.11
2017-07-23T16:24:21.681Z,26.22
2017-07-23T16:26:49.455Z,26.07
2017-07-23T16:29:17.280Z,25.88
2017-07-23T16:31:45.427Z,25.84
2017-07-23T16:34:13.452Z,25.78
2017-07-23T16:36:41.262Z,25.61
2017-07-23T16:39:09.099Z,25.53
2017-07-23T16:41:36.900Z,25.43
2017-07-23T16:44:04.767Z,25.48
2017-07-23T16:46:32.558Z,25.36
2017-07-23T16:49:00.435Z,25.40
2017-07-23T16:51:28.360Z,25.28
2017-07-23T16:53:56.157Z,25.09
2017-07-23T16:56:23.975Z,25.07
2017-07-23T16:58:51.733Z,25.25
2017-07-23T17:01:19.558Z,25.01
2017-07-23T17:03:47.305Z,24.77
2017-07-23T17:06:15.186Z,24.84
2017-07-23T17:08:42.919Z,25.19
2017-07-23T17:11:10.603Z,25.66
2017-07-23T17:13:38.444Z,25.99
2017-07-23T17:16:06.152Z,25.57
2017-07-23T17:18:33.876Z,25.89
2017-07-23T17:21:01.785Z,26.11
2017-07-23T17:23:29.635Z,26.26
2017-07-23T17:25:57.357Z,26.49
2017-07-23T17:28:25.147Z,26.04
2017-07-23T17:30:52.947Z,25.77
2017-07-23T17:33:20.790Z,24.48
2017-07-23T17:35:49.442Z,24.25
2017-07-23T17:38:17.200Z,23.99
2017-07-23T17:40:44.994Z,23.42
2017-07-23T17:43:12.716Z,23.38
2017-07-23T17:45:40.482Z,23.13
2017-07-23T17:48:08.248Z,23.11
2017-07-23T17:50:36.024Z,23.03
2017-07-23T17:53:03.846Z,23.06
2017-07-23T17:55:31.620Z,22.99
2017-07-23T17:57:59.417Z,22.93
2017-07-23T18:00:27.247Z,22.83
2017-07-23T18:02:54.975Z,22.87
2017-07-23T18:05:22.772Z,22.61
2017-07-23T18:07:51.265Z,22.22
2017-07-23T18:10:19.009Z,22.17
2017-07-23T18:12:47.791Z,22.21
2017-07-23T18:15:15.611Z,22.19
2017-07-23T18:17:43.399Z,22.09
2017-07-23T18:20:11.176Z,21.94
2017-07-23T18:22:38.919Z,22.02
2017-07-23T18:25:07.089Z,21.94
2017-07-23T18:27:34.855Z,22.02
2017-07-23T18:30:02.721Z,22.04
2017-07-23T18:32:30.564Z,21.94
2017-07-23T18:34:58.333Z,21.81
2017-07-23T18:37:26.070Z,21.81
2017-07-23T18:39:53.843Z,22.02
2017-07-23T18:42:21.598Z,22.02
2017-07-23T18:44:49.349Z,21.60
2017-07-23T18:47:17.146Z,21.64
2017-07-23T18:49:45.067Z,21.76
2017-07-23T18:52:12.790Z,21.75
2017-07-23T18:54:40.603Z,21.70
2017-07-23T18:57:08.328Z,21.61
2017-07-23T18:59:36.088Z,21.66
2017-07-23T19:02:03.809Z,21.64
2017-07-23T19:04:31.634Z,21.58
2017-07-23T19:06:59.374Z,21.54
2017-07-23T19:09:27.200Z,21.52
2017-07-23T19:11:54.911Z,21.42
2017-07-23T19:14:22.800Z,21.37
2017-07-23T19:16:50.580Z,21.20
2017-07-23T19:19:18.314Z,21.18
2017-07-23T19:21:46.103Z,21.02
2017-07-23T19:24:13.863Z,20.89
2017-07-23T19:26:41.705Z,20.84
2017-07-23T19:29:09.645Z,21.04
2017-07-23T19:31:37.345Z,21.14
2017-07-23T19:34:05.225Z,21.16
2017-07-23T19:36:32.958Z,21.14
2017-07-23T19:39:00.717Z,21.24
2017-07-23T19:41:28.529Z,21.19
2017-07-23T19:43:56.348Z,20.98
2017-07-23T19:46:24.136Z,20.80
2017-07-23T19:48:51.932Z,20.90
2017-07-23T19:51:19.713Z,20.70
2017-07-23T19:53:47.485Z,21.02
2017-07-23T19:56:15.277Z,20.87
2017-07-23T19:58:42.993Z,20.85
2017-07-23T20:01:10.769Z,20.99
2017-07-23T20:03:38.604Z,20.83
2017-07-23T20:06:06.359Z,20.94
2017-07-23T20:08:34.084Z,20.77
2017-07-23T20:11:01.943Z,20.77
2017-07-23T20:13:29.707Z,20.82
2017-07-23T20:15:57.470Z,20.71
2017-07-23T20:18:25.336Z,20.77
2017-07-23T20:20:53.082Z,20.75
2017-07-23T20:23:20.807Z,20.83
2017-07-23T20:25:48.604Z,20.88
2017-07-23T20:28:16.372Z,20.81
2017-07-23T20:30:44.180Z,20.76
2017-07-23T20:33:11.944Z,20.76
2017-07-23T20:35:39.776Z,20.80
2017-07-23T20:38:07.546Z,20.75
2017-07-23T20:40:35.317Z,20.66
2017-07-23T20:43:03.138Z,20.64
2017-07-23T20:45:30.881Z,20.43
2017-07-23T20:47:58.598Z,20.49
2017-07-23T20:50:26.366Z,20.35
2017-07-23T20:52:54.948Z,20.39
2017-07-23T20:55:22.746Z,20.45
2017-07-23T20:57:51.497Z,20.44
2017-07-23T21:00:19.775Z,20.43
2017-07-23T21:02:47.516Z,20.54
2017-07-23T21:05:15.295Z,20.46
2017-07-23T21:07:43.046Z,20.49
2017-07-23T21:10:10.753Z,20.45
2017-07-23T21:12:38.525Z,20.41
2017-07-23T21:15:06.417Z,20.41
2017-07-23T21:17:34.433Z,20.41
2017-07-23T21:20:02.215Z,20.37
2017-07-23T21:22:29.990Z,20.40
2017-07-23T21:24:57.780Z,20.28
2017-07-23T21:27:25.522Z,20.20
2017-07-23T21:29:53.355Z,20.26
2017-07-23T21:32:21.155Z,20.30
2017-07-23T21:34:48.870Z,20.16
2017-07-23T21:37:16.700Z,20.10
2017-07-23T21:39:44.480Z,20.15
2017-07-23T21:42:12.277Z,20.18
2017-07-23T21:44:40.087Z,20.17
2017-07-23T21:47:09.122Z,20.00
2017-07-23T21:49:36.937Z,19.88
2017-07-23T21:52:04.866Z,19.88
2017-07-23T21:54:32.699Z,19.98
2017-07-23T21:57:00.470Z,20.02
2017-07-23T21:59:28.266Z,20.13
2017-07-23T22:01:56.043Z,20.25
2017-07-23T22:04:23.868Z,20.15
2017-07-23T22:06:51.668Z,20.09
2017-07-23T22:09:19.538Z,20.14
2017-07-23T22:11:48.274Z,20.00
2017-07-23T22:14:16.059Z,20.02
2017-07-23T22:16:43.934Z,20.03
2017-07-23T22:19:11.652Z,20.10
2017-07-23T22:21:39.382Z,20.07
2017-07-23T22:24:07.352Z,19.95
2017-07-23T22:26:35.136Z,19.73
2017-07-23T22:29:02.833Z,19.61
2017-07-23T22:31:30.571Z,19.60
2017-07-23T22:33:58.326Z,19.77
2017-07-23T22:36:28.686Z,19.83
2017-07-23T22:38:57.493Z,19.84
2017-07-23T22:41:26.689Z,19.76
2017-07-23T22:43:56.864Z,19.63
2017-07-23T22:46:27.005Z,19.51
2017-07-23T22:48:55.064Z,19.47
2017-07-23T22:51:27.589Z,19.52
2017-07-23T22:53:56.951Z,19.35
2017-07-23T22:56:27.660Z,19.43
2017-07-23T22:59:02.584Z,19.54
2017-07-23T23:01:37.530Z,19.68
2017-07-23T23:04:07.138Z,19.68
2017-07-23T23:06:36.537Z,19.59
2017-07-23T23:09:09.590Z,19.77
2017-07-23T23:11:37.290Z,19.84
2017-07-23T23:14:05.059Z,19.82
2017-07-23T23:16:32.801Z,19.75
2017-07-23T23:19:00.516Z,19.65
2017-07-23T23:21:28.266Z,19.67
2017-07-23T23:23:55.981Z,19.47
2017-07-23T23:26:23.766Z,19.36
2017-07-23T23:28:51.496Z,19.30
2017-07-23T23:31:19.271Z,19.15
2017-07-23T23:33:47.015Z,19.16
2017-07-23T23:36:14.748Z,19.15
2017-07-23T23:38:42.512Z,19.23
2017-07-23T23:41:10.208Z,19.21
2017-07-23T23:43:38.912Z,19.25
2017-07-23T23:46:06.631Z,19.34
2017-07-23T23:48:34.394Z,19.32
2017-07-23T23:51:02.154Z,19.38
2017-07-23T23:53:29.917Z,19.37
2017-07-23T23:55:57.645Z,19.39
2017-07-23T23:58:25.352Z,19.34
